sensor_id;sensor_type;location;lat;lon;timestamp;pressure;altitude;pressure_sealevel;temperature;humidity
61394;BME280;48555;50.952;-0.120;2023-04-07T00:00:49;101331.09;;;9.88;69.58
61394;BME280;48555;50.952;-0.120;2023-04-07T00:03:15;101324.25;;;9.86;69.68
61394;BME280;48555;50.952;-0.120;2023-04-07T00:05:40;101331.91;;;9.89;69.83
61394;BME280;48555;50.952;-0.120;2023-04-07T00:08:06;101333.78;;;9.87;69.78
61394;BME280;48555;50.952;-0.120;2023-04-07T00:10:31;101336.63;;;9.82;69.86
61394;BME280;48555;50.952;-0.120;2023-04-07T00:12:57;101334.31;;;9.77;69.95
61394;BME280;48555;50.952;-0.120;2023-04-07T00:15:22;101327.69;;;9.72;69.94
61394;BME280;48555;50.952;-0.120;2023-04-07T00:17:48;101327.75;;;9.70;70.00
61394;BME280;48555;50.952;-0.120;2023-04-07T00:20:13;101331.31;;;9.69;70.06
61394;BME280;48555;50.952;-0.120;2023-04-07T00:22:38;101334.22;;;9.65;69.96
61394;BME280;48555;50.952;-0.120;2023-04-07T00:25:04;101332.31;;;9.67;70.21
61394;BME280;48555;50.952;-0.120;2023-04-07T00:27:30;101330.56;;;9.67;70.15
61394;BME280;48555;50.952;-0.120;2023-04-07T00:29:55;101331.84;;;9.60;70.15
61394;BME280;48555;50.952;-0.120;2023-04-07T00:32:21;101338.00;;;9.59;70.27
61394;BME280;48555;50.952;-0.120;2023-04-07T00:34:46;101337.16;;;9.59;70.12
61394;BME280;48555;50.952;-0.120;2023-04-07T00:37:12;101341.47;;;9.60;70.36
61394;BME280;48555;50.952;-0.120;2023-04-07T00:39:38;101336.59;;;9.53;70.29
61394;BME280;48555;50.952;-0.120;2023-04-07T00:42:03;101339.38;;;9.50;70.19
61394;BME280;48555;50.952;-0.120;2023-04-07T00:44:31;101338.97;;;9.42;70.43
61394;BME280;48555;50.952;-0.120;2023-04-07T00:46:57;101330.38;;;9.40;70.44
61394;BME280;48555;50.952;-0.120;2023-04-07T00:49:23;101343.38;;;9.42;70.15
61394;BME280;48555;50.952;-0.120;2023-04-07T00:51:49;101341.00;;;9.37;70.38
61394;BME280;48555;50.952;-0.120;2023-04-07T00:54:16;101342.59;;;9.40;70.38
61394;BME280;48555;50.952;-0.120;2023-04-07T00:56:42;101343.44;;;9.40;70.45
61394;BME280;48555;50.952;-0.120;2023-04-07T00:59:08;101353.03;;;9.40;70.13
61394;BME280;48555;50.952;-0.120;2023-04-07T01:04:11;101348.84;;;9.37;70.15
61394;BME280;48555;50.952;-0.120;2023-04-07T01:06:43;101353.09;;;9.38;70.27
61394;BME280;48555;50.952;-0.120;2023-04-07T01:09:53;101355.00;;;9.36;70.21
61394;BME280;48555;50.952;-0.120;2023-04-07T01:12:45;101350.03;;;9.31;69.89
61394;BME280;48555;50.952;-0.120;2023-04-07T01:15:14;101350.13;;;9.30;70.11
61394;BME280;48555;50.952;-0.120;2023-04-07T01:17:44;101353.81;;;9.26;70.20
61394;BME280;48555;50.952;-0.120;2023-04-07T01:20:15;101352.22;;;9.23;69.99
61394;BME280;48555;50.952;-0.120;2023-04-07T01:22:45;101355.59;;;9.25;69.99
61394;BME280;48555;50.952;-0.120;2023-04-07T01:30:14;101350.47;;;9.24;70.21
61394;BME280;48555;50.952;-0.120;2023-04-07T01:32:42;101355.59;;;9.25;70.23
61394;BME280;48555;50.952;-0.120;2023-04-07T01:35:12;101353.81;;;9.26;70.15
61394;BME280;48555;50.952;-0.120;2023-04-07T01:37:38;101356.69;;;9.21;69.80
61394;BME280;48555;50.952;-0.120;2023-04-07T01:40:06;101353.06;;;9.24;70.00
61394;BME280;48555;50.952;-0.120;2023-04-07T01:42:33;101348.75;;;9.23;69.89
61394;BME280;48555;50.952;-0.120;2023-04-07T01:44:59;101345.66;;;9.16;70.12
61394;BME280;48555;50.952;-0.120;2023-04-07T01:47:27;101353.00;;;9.09;70.09
61394;BME280;48555;50.952;-0.120;2023-04-07T01:49:56;101353.53;;;9.00;70.25
61394;BME280;48555;50.952;-0.120;2023-04-07T01:52:22;101354.25;;;9.02;70.31
61394;BME280;48555;50.952;-0.120;2023-04-07T01:54:48;101363.00;;;9.01;69.97
61394;BME280;48555;50.952;-0.120;2023-04-07T01:57:14;101355.38;;;8.98;70.06
61394;BME280;48555;50.952;-0.120;2023-04-07T01:59:39;101354.00;;;8.91;69.91
61394;BME280;48555;50.952;-0.120;2023-04-07T02:02:05;101355.88;;;8.89;70.09
61394;BME280;48555;50.952;-0.120;2023-04-07T02:04:39;101348.44;;;8.81;69.89
61394;BME280;48555;50.952;-0.120;2023-04-07T02:07:14;101354.50;;;8.82;70.16
61394;BME280;48555;50.952;-0.120;2023-04-07T02:09:42;101353.94;;;8.77;70.05
61394;BME280;48555;50.952;-0.120;2023-04-07T02:12:11;101359.16;;;8.77;69.92
61394;BME280;48555;50.952;-0.120;2023-04-07T02:14:37;101356.53;;;8.77;70.03
61394;BME280;48555;50.952;-0.120;2023-04-07T02:17:03;101359.88;;;8.79;69.73
61394;BME280;48555;50.952;-0.120;2023-04-07T02:19:30;101361.66;;;8.78;69.62
61394;BME280;48555;50.952;-0.120;2023-04-07T02:21:56;101362.34;;;8.82;69.83
61394;BME280;48555;50.952;-0.120;2023-04-07T02:24:22;101358.72;;;8.84;70.10
61394;BME280;48555;50.952;-0.120;2023-04-07T02:26:47;101361.31;;;8.84;69.99
61394;BME280;48555;50.952;-0.120;2023-04-07T02:29:12;101362.34;;;8.82;69.95
61394;BME280;48555;50.952;-0.120;2023-04-07T02:31:38;101370.25;;;8.80;70.23
61394;BME280;48555;50.952;-0.120;2023-04-07T02:34:03;101362.66;;;8.76;69.95
61394;BME280;48555;50.952;-0.120;2023-04-07T02:36:28;101354.09;;;8.74;70.13
61394;BME280;48555;50.952;-0.120;2023-04-07T02:38:55;101363.66;;;8.73;69.91
61394;BME280;48555;50.952;-0.120;2023-04-07T02:41:20;101366.44;;;8.70;69.82
61394;BME280;48555;50.952;-0.120;2023-04-07T02:43:46;101357.88;;;8.68;69.84
61394;BME280;48555;50.952;-0.120;2023-04-07T02:46:11;101364.69;;;8.71;70.07
61394;BME280;48555;50.952;-0.120;2023-04-07T02:48:37;101360.38;;;8.70;69.81
61394;BME280;48555;50.952;-0.120;2023-04-07T02:51:02;101366.53;;;8.69;70.06
61394;BME280;48555;50.952;-0.120;2023-04-07T02:53:27;101365.78;;;8.67;70.07
61394;BME280;48555;50.952;-0.120;2023-04-07T02:55:53;101368.66;;;8.62;69.80
61394;BME280;48555;50.952;-0.120;2023-04-07T02:58:18;101366.28;;;8.57;70.00
61394;BME280;48555;50.952;-0.120;2023-04-07T03:00:43;101364.06;;;8.50;70.16
61394;BME280;48555;50.952;-0.120;2023-04-07T03:03:09;101370.59;;;8.41;70.13
61394;BME280;48555;50.952;-0.120;2023-04-07T03:05:34;101372.59;;;8.36;70.10
61394;BME280;48555;50.952;-0.120;2023-04-07T03:08:00;101365.09;;;8.30;70.16
61394;BME280;48555;50.952;-0.120;2023-04-07T03:10:25;101364.38;;;8.26;70.08
61394;BME280;48555;50.952;-0.120;2023-04-07T03:12:50;101367.88;;;8.27;70.17
61394;BME280;48555;50.952;-0.120;2023-04-07T03:15:16;101356.56;;;8.26;70.00
61394;BME280;48555;50.952;-0.120;2023-04-07T03:17:41;101365.84;;;8.32;70.24
61394;BME280;48555;50.952;-0.120;2023-04-07T03:20:07;101354.56;;;8.31;70.29
61394;BME280;48555;50.952;-0.120;2023-04-07T03:22:33;101352.97;;;8.29;70.07
61394;BME280;48555;50.952;-0.120;2023-04-07T03:24:58;101357.66;;;8.22;69.92
61394;BME280;48555;50.952;-0.120;2023-04-07T03:27:23;101357.16;;;8.15;70.33
61394;BME280;48555;50.952;-0.120;2023-04-07T03:29:49;101352.16;;;8.11;70.18
61394;BME280;48555;50.952;-0.120;2023-04-07T03:32:15;101355.75;;;8.08;70.35
61394;BME280;48555;50.952;-0.120;2023-04-07T03:34:40;101350.13;;;8.00;70.28
61394;BME280;48555;50.952;-0.120;2023-04-07T03:37:06;101357.94;;;8.00;70.09
61394;BME280;48555;50.952;-0.120;2023-04-07T03:39:31;101359.84;;;7.96;70.21
61394;BME280;48555;50.952;-0.120;2023-04-07T03:41:56;101362.44;;;7.96;70.42
61394;BME280;48555;50.952;-0.120;2023-04-07T03:44:22;101357.31;;;7.95;70.31
61394;BME280;48555;50.952;-0.120;2023-04-07T03:46:48;101364.22;;;7.96;70.33
61394;BME280;48555;50.952;-0.120;2023-04-07T03:49:14;101355.78;;;7.91;70.21
61394;BME280;48555;50.952;-0.120;2023-04-07T03:51:40;101355.94;;;7.88;70.28
61394;BME280;48555;50.952;-0.120;2023-04-07T03:54:05;101357.25;;;7.79;70.38
61394;BME280;48555;50.952;-0.120;2023-04-07T03:56:31;101367.75;;;7.78;70.38
61394;BME280;48555;50.952;-0.120;2023-04-07T03:58:56;101370.56;;;7.73;70.41
61394;BME280;48555;50.952;-0.120;2023-04-07T04:01:22;101365.34;;;7.73;70.58
61394;BME280;48555;50.952;-0.120;2023-04-07T04:03:48;101364.69;;;7.69;70.48
61394;BME280;48555;50.952;-0.120;2023-04-07T04:06:14;101359.41;;;7.71;70.30
61394;BME280;48555;50.952;-0.120;2023-04-07T04:08:39;101365.28;;;7.74;70.17
61394;BME280;48555;50.952;-0.120;2023-04-07T04:11:04;101367.81;;;7.76;70.26
61394;BME280;48555;50.952;-0.120;2023-04-07T04:13:30;101368.59;;;7.78;70.05
61394;BME280;48555;50.952;-0.120;2023-04-07T04:15:56;101360.31;;;7.70;70.31
61394;BME280;48555;50.952;-0.120;2023-04-07T04:18:21;101370.81;;;7.68;70.50
61394;BME280;48555;50.952;-0.120;2023-04-07T04:20:47;101367.44;;;7.66;70.43
61394;BME280;48555;50.952;-0.120;2023-04-07T04:23:13;101377.38;;;7.58;70.60
61394;BME280;48555;50.952;-0.120;2023-04-07T04:25:38;101374.38;;;7.48;70.95
61394;BME280;48555;50.952;-0.120;2023-04-07T04:28:05;101383.41;;;7.41;71.17
61394;BME280;48555;50.952;-0.120;2023-04-07T04:30:30;101386.03;;;7.41;71.31
61394;BME280;48555;50.952;-0.120;2023-04-07T04:32:56;101385.09;;;7.42;71.57
61394;BME280;48555;50.952;-0.120;2023-04-07T04:35:21;101384.16;;;7.43;71.42
61394;BME280;48555;50.952;-0.120;2023-04-07T04:37:47;101390.97;;;7.46;71.48
61394;BME280;48555;50.952;-0.120;2023-04-07T04:40:12;101394.50;;;7.45;71.75
61394;BME280;48555;50.952;-0.120;2023-04-07T04:42:38;101390.16;;;7.45;71.85
61394;BME280;48555;50.952;-0.120;2023-04-07T04:45:04;101394.56;;;7.43;72.12
61394;BME280;48555;50.952;-0.120;2023-04-07T04:47:30;101386.06;;;7.40;71.97
61394;BME280;48555;50.952;-0.120;2023-04-07T04:49:56;101399.22;;;7.37;72.21
61394;BME280;48555;50.952;-0.120;2023-04-07T04:52:21;101398.47;;;7.35;72.39
61394;BME280;48555;50.952;-0.120;2023-04-07T04:54:46;101394.53;;;7.26;72.75
61394;BME280;48555;50.952;-0.120;2023-04-07T04:57:12;101397.75;;;7.31;73.07
61394;BME280;48555;50.952;-0.120;2023-04-07T04:59:37;101393.50;;;7.30;73.11
61394;BME280;48555;50.952;-0.120;2023-04-07T05:02:04;101401.28;;;7.30;73.28
61394;BME280;48555;50.952;-0.120;2023-04-07T05:04:30;101396.97;;;7.29;73.19
61394;BME280;48555;50.952;-0.120;2023-04-07T05:06:55;101402.91;;;7.33;73.15
61394;BME280;48555;50.952;-0.120;2023-04-07T05:09:21;101412.03;;;7.41;72.58
61394;BME280;48555;50.952;-0.120;2023-04-07T05:11:46;101401.53;;;7.43;72.39
61394;BME280;48555;50.952;-0.120;2023-04-07T05:14:12;101401.38;;;7.46;72.11
61394;BME280;48555;50.952;-0.120;2023-04-07T05:16:37;101404.84;;;7.46;72.17
61394;BME280;48555;50.952;-0.120;2023-04-07T05:19:02;101410.81;;;7.48;72.04
61394;BME280;48555;50.952;-0.120;2023-04-07T05:21:28;101411.28;;;7.57;71.67
61394;BME280;48555;50.952;-0.120;2023-04-07T05:23:53;101410.47;;;7.56;71.55
61394;BME280;48555;50.952;-0.120;2023-04-07T05:26:18;101414.59;;;7.60;71.24
61394;BME280;48555;50.952;-0.120;2023-04-07T05:28:44;101414.59;;;7.60;70.96
61394;BME280;48555;50.952;-0.120;2023-04-07T05:31:09;101422.44;;;7.59;70.99
61394;BME280;48555;50.952;-0.120;2023-04-07T05:33:35;101417.41;;;7.56;71.03
61394;BME280;48555;50.952;-0.120;2023-04-07T05:36:00;101425.00;;;7.60;71.13
61394;BME280;48555;50.952;-0.120;2023-04-07T05:38:26;101428.53;;;7.59;70.94
61394;BME280;48555;50.952;-0.120;2023-04-07T05:40:51;101434.47;;;7.61;70.69
61394;BME280;48555;50.952;-0.120;2023-04-07T05:43:16;101431.97;;;7.60;70.96
61394;BME280;48555;50.952;-0.120;2023-04-07T05:45:42;101437.09;;;7.61;71.24
61394;BME280;48555;50.952;-0.120;2023-04-07T05:48:07;101436.63;;;7.70;71.09
61394;BME280;48555;50.952;-0.120;2023-04-07T05:50:32;101435.97;;;7.84;71.59
61394;BME280;48555;50.952;-0.120;2023-04-07T05:52:58;101439.56;;;7.99;71.44
61394;BME280;48555;50.952;-0.120;2023-04-07T05:55:23;101451.81;;;8.14;71.43
61394;BME280;48555;50.952;-0.120;2023-04-07T05:57:48;101459.28;;;8.39;71.35
61394;BME280;48555;50.952;-0.120;2023-04-07T06:00:14;101465.13;;;8.78;71.39
61394;BME280;48555;50.952;-0.120;2023-04-07T06:02:40;101466.97;;;9.25;71.19
61394;BME280;48555;50.952;-0.120;2023-04-07T06:05:06;101473.09;;;9.71;70.70
61394;BME280;48555;50.952;-0.120;2023-04-07T06:07:31;101468.13;;;10.13;69.95
61394;BME280;48555;50.952;-0.120;2023-04-07T06:09:56;101464.56;;;10.58;68.97
61394;BME280;48555;50.952;-0.120;2023-04-07T06:12:22;101468.41;;;10.96;68.31
61394;BME280;48555;50.952;-0.120;2023-04-07T06:14:52;101469.59;;;11.33;67.48
61394;BME280;48555;50.952;-0.120;2023-04-07T06:17:18;101471.53;;;11.71;66.21
61394;BME280;48555;50.952;-0.120;2023-04-07T06:19:44;101470.16;;;12.05;65.52
61394;BME280;48555;50.952;-0.120;2023-04-07T06:22:09;101469.50;;;12.41;64.59
61394;BME280;48555;50.952;-0.120;2023-04-07T06:24:35;101467.41;;;12.72;62.96
61394;BME280;48555;50.952;-0.120;2023-04-07T06:27:01;101484.16;;;13.08;61.90
61394;BME280;48555;50.952;-0.120;2023-04-07T06:29:28;101472.22;;;13.40;60.89
61394;BME280;48555;50.952;-0.120;2023-04-07T06:31:53;101475.66;;;13.78;59.58
61394;BME280;48555;50.952;-0.120;2023-04-07T06:34:19;101477.91;;;14.06;57.99
61394;BME280;48555;50.952;-0.120;2023-04-07T06:36:44;101483.50;;;14.37;56.96
61394;BME280;48555;50.952;-0.120;2023-04-07T06:39:10;101479.25;;;14.70;56.22
61394;BME280;48555;50.952;-0.120;2023-04-07T06:41:35;101486.94;;;14.95;55.29
61394;BME280;48555;50.952;-0.120;2023-04-07T06:44:01;101486.94;;;15.18;54.18
61394;BME280;48555;50.952;-0.120;2023-04-07T06:46:26;101483.16;;;15.43;53.29
61394;BME280;48555;50.952;-0.120;2023-04-07T06:48:51;101482.97;;;15.67;52.35
61394;BME280;48555;50.952;-0.120;2023-04-07T06:51:17;101487.59;;;15.97;51.57
61394;BME280;48555;50.952;-0.120;2023-04-07T06:53:42;101497.06;;;16.21;50.56
61394;BME280;48555;50.952;-0.120;2023-04-07T06:56:11;101484.13;;;16.39;50.08
61394;BME280;48555;50.952;-0.120;2023-04-07T06:58:37;101485.38;;;16.65;49.21
61394;BME280;48555;50.952;-0.120;2023-04-07T07:01:03;101487.75;;;16.89;48.67
61394;BME280;48555;50.952;-0.120;2023-04-07T07:03:30;101500.34;;;17.16;48.29
61394;BME280;48555;50.952;-0.120;2023-04-07T07:05:59;101494.97;;;17.37;47.51
61394;BME280;48555;50.952;-0.120;2023-04-07T07:08:25;101502.53;;;17.52;46.85
61394;BME280;48555;50.952;-0.120;2023-04-07T07:10:52;101499.31;;;17.67;46.76
61394;BME280;48555;50.952;-0.120;2023-04-07T07:13:18;101508.59;;;17.83;46.20
61394;BME280;48555;50.952;-0.120;2023-04-07T07:15:44;101511.06;;;17.94;45.50
61394;BME280;48555;50.952;-0.120;2023-04-07T07:18:10;101508.16;;;18.07;45.49
61394;BME280;48555;50.952;-0.120;2023-04-07T07:20:35;101500.34;;;18.25;45.33
61394;BME280;48555;50.952;-0.120;2023-04-07T07:23:01;101503.94;;;18.43;45.48
61394;BME280;48555;50.952;-0.120;2023-04-07T07:25:26;101509.47;;;18.59;45.00
61394;BME280;48555;50.952;-0.120;2023-04-07T07:27:52;101512.78;;;18.81;44.49
61394;BME280;48555;50.952;-0.120;2023-04-07T07:30:20;101513.97;;;18.96;44.21
61394;BME280;48555;50.952;-0.120;2023-04-07T07:32:45;101521.97;;;19.14;43.77
61394;BME280;48555;50.952;-0.120;2023-04-07T07:35:10;101519.84;;;19.27;43.63
61394;BME280;48555;50.952;-0.120;2023-04-07T07:37:36;101519.63;;;19.39;43.43
61394;BME280;48555;50.952;-0.120;2023-04-07T07:40:01;101522.53;;;19.45;43.09
61394;BME280;48555;50.952;-0.120;2023-04-07T07:42:28;101523.88;;;19.49;43.04
61394;BME280;48555;50.952;-0.120;2023-04-07T07:44:53;101525.41;;;19.52;43.34
61394;BME280;48555;50.952;-0.120;2023-04-07T07:47:20;101527.63;;;19.57;43.63
61394;BME280;48555;50.952;-0.120;2023-04-07T07:49:46;101524.16;;;19.56;43.24
61394;BME280;48555;50.952;-0.120;2023-04-07T07:52:11;101526.78;;;19.56;44.22
61394;BME280;48555;50.952;-0.120;2023-04-07T07:54:36;101513.56;;;19.46;43.59
61394;BME280;48555;50.952;-0.120;2023-04-07T07:57:02;101542.84;;;19.55;43.75
61394;BME280;48555;50.952;-0.120;2023-04-07T07:59:29;101531.41;;;19.54;43.78
61394;BME280;48555;50.952;-0.120;2023-04-07T08:01:54;101529.06;;;19.51;43.86
61394;BME280;48555;50.952;-0.120;2023-04-07T08:04:20;101522.53;;;19.45;43.33
61394;BME280;48555;50.952;-0.120;2023-04-07T08:06:48;101526.59;;;19.40;44.25
61394;BME280;48555;50.952;-0.120;2023-04-07T08:09:14;101536.09;;;19.42;44.25
61394;BME280;48555;50.952;-0.120;2023-04-07T08:11:39;101531.38;;;19.36;44.57
61394;BME280;48555;50.952;-0.120;2023-04-07T08:14:05;101529.69;;;19.35;44.59
61394;BME280;48555;50.952;-0.120;2023-04-07T08:16:31;101531.97;;;19.30;43.85
61394;BME280;48555;50.952;-0.120;2023-04-07T08:18:56;101539.66;;;19.23;43.98
61394;BME280;48555;50.952;-0.120;2023-04-07T08:21:21;101539.41;;;19.17;44.88
61394;BME280;48555;50.952;-0.120;2023-04-07T08:23:47;101542.66;;;19.11;44.91
61394;BME280;48555;50.952;-0.120;2023-04-07T08:26:12;101542.47;;;18.94;44.94
61394;BME280;48555;50.952;-0.120;2023-04-07T08:28:38;101538.00;;;18.85;45.50
61394;BME280;48555;50.952;-0.120;2023-04-07T08:31:04;101545.09;;;18.94;46.27
61394;BME280;48555;50.952;-0.120;2023-04-07T08:33:29;101543.38;;;19.03;46.44
61394;BME280;48555;50.952;-0.120;2023-04-07T08:35:55;101549.78;;;19.10;45.69
61394;BME280;48555;50.952;-0.120;2023-04-07T08:38:20;101549.47;;;19.13;46.23
61394;BME280;48555;50.952;-0.120;2023-04-07T08:40:48;101555.84;;;19.20;46.58
61394;BME280;48555;50.952;-0.120;2023-04-07T08:43:18;101560.56;;;19.26;46.84
61394;BME280;48555;50.952;-0.120;2023-04-07T08:45:45;101552.34;;;19.29;46.65
61394;BME280;48555;50.952;-0.120;2023-04-07T08:48:16;101550.66;;;19.28;46.71
61394;BME280;48555;50.952;-0.120;2023-04-07T08:50:43;101556.97;;;19.27;46.24
61394;BME280;48555;50.952;-0.120;2023-04-07T08:53:12;101547.59;;;19.23;47.03
61394;BME280;48555;50.952;-0.120;2023-04-07T08:55:40;101552.06;;;19.33;46.99
61394;BME280;48555;50.952;-0.120;2023-04-07T08:58:08;101555.38;;;19.35;47.15
61394;BME280;48555;50.952;-0.120;2023-04-07T09:00:38;101559.72;;;19.36;47.19
61394;BME280;48555;50.952;-0.120;2023-04-07T09:03:04;101556.22;;;19.35;47.43
61394;BME280;48555;50.952;-0.120;2023-04-07T09:05:30;101555.78;;;19.40;47.41
61394;BME280;48555;50.952;-0.120;2023-04-07T09:07:56;101555.09;;;19.38;47.53
61394;BME280;48555;50.952;-0.120;2023-04-07T09:10:21;101559.06;;;19.24;47.39
61394;BME280;48555;50.952;-0.120;2023-04-07T09:12:47;101559.06;;;19.24;47.60
61394;BME280;48555;50.952;-0.120;2023-04-07T09:15:13;101559.03;;;19.34;47.79
61394;BME280;48555;50.952;-0.120;2023-04-07T09:17:38;101563.31;;;19.44;47.91
61394;BME280;48555;50.952;-0.120;2023-04-07T09:20:04;101569.91;;;19.58;47.69
61394;BME280;48555;50.952;-0.120;2023-04-07T09:22:41;101564.59;;;19.68;47.14
61394;BME280;48555;50.952;-0.120;2023-04-07T09:25:23;101563.75;;;19.85;47.07
61394;BME280;48555;50.952;-0.120;2023-04-07T09:28:08;101563.31;;;19.72;45.28
61394;BME280;48555;50.952;-0.120;2023-04-07T09:30:33;101560.28;;;19.57;45.70
61394;BME280;48555;50.952;-0.120;2023-04-07T09:33:00;101563.38;;;19.52;46.40
61394;BME280;48555;50.952;-0.120;2023-04-07T09:35:25;101563.34;;;19.35;46.17
61394;BME280;48555;50.952;-0.120;2023-04-07T09:38:03;101568.88;;;19.14;46.74
61394;BME280;48555;50.952;-0.120;2023-04-07T09:40:28;101562.25;;;18.90;46.55
61394;BME280;48555;50.952;-0.120;2023-04-07T09:42:54;101566.19;;;18.67;46.94
61394;BME280;48555;50.952;-0.120;2023-04-07T09:45:24;101571.13;;;18.42;47.72
61394;BME280;48555;50.952;-0.120;2023-04-07T09:47:49;101571.13;;;18.23;47.94
61394;BME280;48555;50.952;-0.120;2023-04-07T09:50:30;101559.56;;;17.95;48.29
61394;BME280;48555;50.952;-0.120;2023-04-07T09:52:56;101563.81;;;17.76;48.56
61394;BME280;48555;50.952;-0.120;2023-04-07T09:55:22;101565.34;;;17.69;48.45
61394;BME280;48555;50.952;-0.120;2023-04-07T09:57:49;101565.25;;;17.80;48.28
61394;BME280;48555;50.952;-0.120;2023-04-07T10:00:15;101562.88;;;17.87;48.28
61394;BME280;48555;50.952;-0.120;2023-04-07T10:02:40;101561.38;;;18.04;48.43
61394;BME280;48555;50.952;-0.120;2023-04-07T10:05:07;101556.50;;;18.19;47.90
61394;BME280;48555;50.952;-0.120;2023-04-07T10:07:33;101557.75;;;18.24;46.88
61394;BME280;48555;50.952;-0.120;2023-04-07T10:09:59;101562.78;;;18.27;47.07
61394;BME280;48555;50.952;-0.120;2023-04-07T10:12:26;101564.69;;;18.06;45.31
61394;BME280;48555;50.952;-0.120;2023-04-07T10:14:51;101565.81;;;17.93;45.11
61394;BME280;48555;50.952;-0.120;2023-04-07T10:17:18;101569.56;;;17.81;45.14
61394;BME280;48555;50.952;-0.120;2023-04-07T10:19:45;101569.91;;;17.67;44.64
61394;BME280;48555;50.952;-0.120;2023-04-07T10:22:13;101562.25;;;17.54;44.65
61394;BME280;48555;50.952;-0.120;2023-04-07T10:24:53;101564.88;;;17.44;44.66
61394;BME280;48555;50.952;-0.120;2023-04-07T10:27:28;101573.25;;;17.19;44.14
61394;BME280;48555;50.952;-0.120;2023-04-07T10:29:55;101566.72;;;16.92;44.56
61394;BME280;48555;50.952;-0.120;2023-04-07T10:32:22;101557.31;;;16.78;45.46
61394;BME280;48555;50.952;-0.120;2023-04-07T10:37:20;101558.34;;;16.87;44.90
61394;BME280;48555;50.952;-0.120;2023-04-07T10:39:50;101554.50;;;16.91;44.44
61394;BME280;48555;50.952;-0.120;2023-04-07T10:45:09;101552.72;;;17.01;45.03
61394;BME280;48555;50.952;-0.120;2023-04-07T10:50:24;101543.13;;;16.58;43.76
61394;BME280;48555;50.952;-0.120;2023-04-07T10:53:07;101547.19;;;16.21;43.96
61394;BME280;48555;50.952;-0.120;2023-04-07T10:55:35;101540.94;;;16.43;44.08
61394;BME280;48555;50.952;-0.120;2023-04-07T10:58:26;101557.09;;;16.28;44.66
61394;BME280;48555;50.952;-0.120;2023-04-07T11:03:54;101546.53;;;16.70;44.37
61394;BME280;48555;50.952;-0.120;2023-04-07T11:06:20;101538.66;;;16.91;43.22
61394;BME280;48555;50.952;-0.120;2023-04-07T11:08:47;101545.75;;;17.31;42.76
61394;BME280;48555;50.952;-0.120;2023-04-07T11:11:15;101544.28;;;17.58;42.54
61394;BME280;48555;50.952;-0.120;2023-04-07T11:13:47;101541.44;;;17.90;42.76
61394;BME280;48555;50.952;-0.120;2023-04-07T11:16:14;101545.63;;;18.02;42.77
61394;BME280;48555;50.952;-0.120;2023-04-07T11:18:40;101554.69;;;18.09;42.16
61394;BME280;48555;50.952;-0.120;2023-04-07T11:21:07;101550.28;;;17.60;40.78
61394;BME280;48555;50.952;-0.120;2023-04-07T11:23:43;101559.16;;;17.49;41.26
61394;BME280;48555;50.952;-0.120;2023-04-07T11:26:11;101556.97;;;17.23;40.85
61394;BME280;48555;50.952;-0.120;2023-04-07T11:28:47;101550.00;;;17.13;40.95
61394;BME280;48555;50.952;-0.120;2023-04-07T11:31:25;101553.75;;;17.10;40.42
61394;BME280;48555;50.952;-0.120;2023-04-07T11:33:55;101542.19;;;17.11;40.88
61394;BME280;48555;50.952;-0.120;2023-04-07T11:39:00;101547.66;;;17.19;40.32
61394;BME280;48555;50.952;-0.120;2023-04-07T11:41:27;101544.09;;;17.30;40.81
61394;BME280;48555;50.952;-0.120;2023-04-07T11:44:07;101549.94;;;17.43;39.86
61394;BME280;48555;50.952;-0.120;2023-04-07T11:46:33;101557.97;;;17.32;40.58
61394;BME280;48555;50.952;-0.120;2023-04-07T11:49:12;101541.38;;;17.20;40.09
61394;BME280;48555;50.952;-0.120;2023-04-07T11:51:38;101536.63;;;17.14;39.74
61394;BME280;48555;50.952;-0.120;2023-04-07T11:54:04;101543.78;;;16.93;40.16
61394;BME280;48555;50.952;-0.120;2023-04-07T11:59:17;101540.94;;;16.64;39.39
61394;BME280;48555;50.952;-0.120;2023-04-07T12:01:44;101548.47;;;16.26;39.96
61394;BME280;48555;50.952;-0.120;2023-04-07T12:04:12;101548.41;;;16.38;40.91
61394;BME280;48555;50.952;-0.120;2023-04-07T12:06:38;101546.50;;;16.61;40.70
61394;BME280;48555;50.952;-0.120;2023-04-07T12:09:05;101553.69;;;16.38;39.45
61394;BME280;48555;50.952;-0.120;2023-04-07T12:11:31;101545.50;;;16.62;38.88
61394;BME280;48555;50.952;-0.120;2023-04-07T12:13:57;101542.69;;;16.95;39.45
61394;BME280;48555;50.952;-0.120;2023-04-07T12:16:23;101542.16;;;17.01;38.38
61394;BME280;48555;50.952;-0.120;2023-04-07T12:18:49;101546.81;;;16.67;38.52
61394;BME280;48555;50.952;-0.120;2023-04-07T12:21:16;101544.88;;;16.90;37.71
61394;BME280;48555;50.952;-0.120;2023-04-07T12:23:41;101541.81;;;17.25;38.41
61394;BME280;48555;50.952;-0.120;2023-04-07T12:26:07;101549.56;;;17.48;38.59
61394;BME280;48555;50.952;-0.120;2023-04-07T12:28:32;101541.38;;;17.61;37.79
61394;BME280;48555;50.952;-0.120;2023-04-07T12:30:58;101546.19;;;17.46;37.23
61394;BME280;48555;50.952;-0.120;2023-04-07T12:33:23;101549.19;;;17.62;37.35
61394;BME280;48555;50.952;-0.120;2023-04-07T12:35:49;101542.78;;;17.15;36.65
61394;BME280;48555;50.952;-0.120;2023-04-07T12:38:14;101545.19;;;16.97;37.32
61394;BME280;48555;50.952;-0.120;2023-04-07T12:40:40;101544.13;;;16.78;37.15
61394;BME280;48555;50.952;-0.120;2023-04-07T12:43:06;101541.88;;;17.05;37.35
61394;BME280;48555;50.952;-0.120;2023-04-07T12:45:31;101539.00;;;17.17;36.85
61394;BME280;48555;50.952;-0.120;2023-04-07T12:47:57;101537.09;;;17.29;36.94
61394;BME280;48555;50.952;-0.120;2023-04-07T12:50:23;101547.09;;;17.16;37.13
61394;BME280;48555;50.952;-0.120;2023-04-07T12:52:51;101543.59;;;17.15;37.20
61394;BME280;48555;50.952;-0.120;2023-04-07T12:55:18;101539.91;;;17.28;35.50
61394;BME280;48555;50.952;-0.120;2023-04-07T12:57:43;101549.28;;;16.80;37.72
61394;BME280;48555;50.952;-0.120;2023-04-07T13:00:09;101534.41;;;17.10;38.64
61394;BME280;48555;50.952;-0.120;2023-04-07T13:02:35;101545.34;;;17.36;37.86
61394;BME280;48555;50.952;-0.120;2023-04-07T13:05:03;101533.53;;;17.40;37.64
61394;BME280;48555;50.952;-0.120;2023-04-07T13:07:29;101531.34;;;17.64;37.11